Time;durP1;ratioP1;P1;durP2;ratioP2;P2;SDS_P1;SDS_P2;PMS_P1;PMS_P2;Temp;Humidity;BMP_temperature;BMP_pressure;BME280_temperature;BME280_humidity;BME280_pressure;Samples;Min_cycle;Max_cycle;Signal;HPM_P1;HPM_P2
2022/05/18 00:02:39;;;;;;;4.53;4.07;;;;;;;20.43;63.50;100622.59;10371357;28;20718;-63
2022/05/18 00:07:41;;;;;;;6.60;4.90;;;;;;;20.35;63.20;100617.25;10370282;28;21375;-64
2022/05/18 00:12:45;;;;;;;5.00;4.07;;;;;;;20.30;63.67;100620.47;10373231;28;20137;-64
2022/05/18 00:17:46;;;;;;;3.90;3.50;;;;;;;20.25;63.96;100623.72;10373721;28;20426;-63
2022/05/18 00:22:53;;;;;;;3.65;3.33;;;;;;;20.24;63.97;100627.44;10374010;28;20053;-65
2022/05/18 00:27:55;;;;;;;5.93;4.05;;;;;;;20.23;63.98;100628.44;10373130;28;20087;-65
2022/05/18 00:33:02;;;;;;;5.03;3.33;;;;;;;20.20;63.87;100636.09;10372486;28;20053;-63
2022/05/18 00:38:05;;;;;;;5.32;3.45;;;;;;;20.18;64.82;100640.84;10370389;28;20195;-63
2022/05/18 00:43:15;;;;;;;4.40;4.00;;;;;;;20.14;64.47;100643.84;10368000;28;20068;-64
2022/05/18 00:48:17;;;;;;;5.60;4.00;;;;;;;20.09;64.75;100619.25;10372286;28;20050;-64
2022/05/18 00:53:26;;;;;;;5.43;3.85;;;;;;;20.04;65.01;100627.06;10371481;28;20136;-64
2022/05/18 00:58:42;;;;;;;5.22;3.28;;;;;;;19.95;64.95;100611.88;10371788;28;20508;-63
2022/05/18 01:03:48;;;;;;;4.97;3.97;;;;;;;20.02;65.22;100626.38;10370555;28;20056;-63
2022/05/18 01:08:57;;;;;;;4.15;3.55;;;;;;;19.99;64.94;100632.13;10369167;28;20178;-64
2022/05/18 01:13:59;;;;;;;4.75;3.92;;;;;;;19.95;64.69;100630.78;10369195;28;20083;-63
2022/05/18 01:19:00;;;;;;;4.35;3.90;;;;;;;19.93;64.84;100640.94;10370408;28;20477;-63
2022/05/18 01:24:14;;;;;;;5.85;3.75;;;;;;;19.91;64.65;100645.69;10369390;28;20627;-63
2022/05/18 01:29:20;;;;;;;4.72;3.78;;;;;;;19.88;64.87;100646.03;10365453;28;20221;-63
2022/05/18 01:34:29;;;;;;;6.32;4.00;;;;;;;19.85;64.54;100649.91;10369398;28;20128;-64
2022/05/18 01:39:50;;;;;;;4.38;3.83;;;;;;;19.84;65.06;100647.41;10370406;28;20144;-63
2022/05/18 01:44:52;;;;;;;6.75;4.13;;;;;;;19.83;64.27;100651.97;10371512;28;20033;-65
2022/05/18 01:49:54;;;;;;;6.55;3.80;;;;;;;19.75;64.87;100655.47;10371227;28;20096;-64
2022/05/18 01:54:55;;;;;;;5.22;3.88;;;;;;;19.61;64.64;100648.94;10369109;28;20075;-65
2022/05/18 01:59:57;;;;;;;6.97;3.90;;;;;;;19.66;64.87;100664.63;10368658;28;20107;-65
2022/05/18 02:04:58;;;;;;;4.65;3.50;;;;;;;19.65;65.09;100654.84;10368502;28;20184;-63
2022/05/18 02:09:59;;;;;;;6.68;4.32;;;;;;;19.45;65.09;100634.66;10368761;28;20136;-64
2022/05/18 02:15:03;;;;;;;4.45;3.80;;;;;;;19.57;65.48;100658.41;10370324;28;20470;-65
2022/05/18 02:20:06;;;;;;;4.85;3.58;;;;;;;19.56;65.52;100664.84;10370772;28;20053;-64
2022/05/18 02:25:08;;;;;;;5.35;3.58;;;;;;;19.54;65.95;100657.91;10377553;28;20053;-64
2022/05/18 02:30:10;;;;;;;5.32;4.28;;;;;;;19.52;66.28;100663.47;10375090;28;20435;-66
2022/05/18 02:35:12;;;;;;;6.20;4.07;;;;;;;19.50;66.02;100662.81;10375925;28;20416;-64
2022/05/18 02:40:15;;;;;;;6.07;4.00;;;;;;;19.48;66.08;100666.69;10376215;28;20053;-64
2022/05/18 02:45:16;;;;;;;4.73;3.77;;;;;;;19.52;66.20;100673.44;10376854;28;20497;-64
2022/05/18 02:50:19;;;;;;;4.63;3.90;;;;;;;19.50;66.37;100673.63;10375849;28;20045;-64
2022/05/18 03:00:41;;;;;;;4.53;3.95;;;;;;;19.33;66.27;100664.69;10374557;28;20128;-65
2022/05/18 03:05:42;;;;;;;7.00;4.03;;;;;;;19.37;66.38;100673.31;10374124;28;20057;-64
2022/05/18 03:10:44;;;;;;;4.85;3.78;;;;;;;19.29;67.03;100671.47;10373351;28;20049;-64
2022/05/18 03:15:47;;;;;;;5.80;4.03;;;;;;;19.29;66.94;100692.19;10372257;28;20905;-64
2022/05/18 03:26:18;;;;;;;4.80;4.13;;;;;;;19.25;66.58;100689.84;10372887;28;20049;-63
2022/05/18 03:31:19;;;;;;;5.45;3.97;;;;;;;19.00;67.41;100662.00;10370210;28;20045;-66
2022/05/18 03:36:21;;;;;;;7.90;4.30;;;;;;;19.20;67.08;100702.13;10370666;28;20049;-64
2022/05/18 03:41:23;;;;;;;6.07;4.90;;;;;;;19.15;67.13;100683.75;10372029;28;20148;-64
2022/05/18 03:46:25;;;;;;;5.68;4.03;;;;;;;19.16;67.66;100692.72;10374170;28;20050;-64
2022/05/18 03:51:27;;;;;;;5.32;4.82;;;;;;;19.14;67.54;100692.88;10372284;28;20041;-64
2022/05/18 03:56:28;;;;;;;7.55;5.10;;;;;;;19.13;67.79;100701.16;10372360;28;20056;-65
2022/05/18 04:01:30;;;;;;;5.18;4.68;;;;;;;19.11;67.81;100705.84;10372507;28;20355;-63
2022/05/18 04:06:31;;;;;;;5.18;4.53;;;;;;;19.15;68.37;100718.00;10370635;28;20484;-63
2022/05/18 04:11:32;;;;;;;6.20;4.50;;;;;;;19.18;69.27;100728.47;10373574;28;20476;-63
2022/05/18 04:16:34;;;;;;;6.53;4.72;;;;;;;19.24;69.06;100717.00;10371674;28;20053;-62
2022/05/18 04:21:36;;;;;;;4.80;4.30;;;;;;;19.04;68.66;100693.03;10373094;28;20076;-63
2022/05/18 04:26:37;;;;;;;5.20;4.20;;;;;;;19.19;68.50;100720.19;10371088;28;20091;-64
2022/05/18 04:31:40;;;;;;;5.57;5.00;;;;;;;19.20;68.83;100726.44;10368045;28;20079;-64
2022/05/18 04:36:43;;;;;;;5.90;4.87;;;;;;;19.19;68.75;100736.38;10370274;28;20058;-65
2022/05/18 04:41:44;;;;;;;6.15;4.80;;;;;;;19.21;69.48;100747.00;10369006;28;20194;-64
2022/05/18 04:46:45;;;;;;;5.82;5.22;;;;;;;19.21;69.46;100733.53;10370957;28;20083;-64
2022/05/18 04:51:47;;;;;;;7.05;4.50;;;;;;;19.20;69.40;100743.47;10368968;28;20115;-64
2022/05/18 04:56:48;;;;;;;6.63;5.85;;;;;;;19.21;68.14;100755.09;10371722;28;20067;-64
2022/05/18 05:01:50;;;;;;;5.90;4.53;;;;;;;19.22;68.41;100759.50;10370419;28;20793;-64
2022/05/18 05:06:51;;;;;;;5.10;4.57;;;;;;;19.28;68.28;100760.69;10370390;28;20557;-64
2022/05/18 05:11:53;;;;;;;6.95;5.47;;;;;;;19.33;66.85;100764.56;10372398;28;20061;-64
2022/05/18 05:16:55;;;;;;;9.73;5.80;;;;;;;19.37;66.69;100759.69;10373917;28;20162;-66
2022/05/18 05:21:56;;;;;;;5.72;4.93;;;;;;;19.15;66.85;100723.41;10370222;28;20100;-65
2022/05/18 05:26:58;;;;;;;7.82;6.35;;;;;;;19.34;66.55;100763.56;10370389;28;20045;-64
2022/05/18 05:32:06;;;;;;;7.30;5.72;;;;;;;19.48;66.58;100789.03;10368496;28;20100;-64
2022/05/18 05:37:07;;;;;;;8.90;6.55;;;;;;;19.31;66.81;100752.25;10370735;28;20115;-64
2022/05/18 05:42:09;;;;;;;12.35;6.25;;;;;;;19.60;66.93;100792.22;10369102;28;20049;-64
2022/05/18 05:47:11;;;;;;;6.55;5.90;;;;;;;19.64;66.65;100782.78;10366788;28;20183;-65
2022/05/18 05:52:13;;;;;;;5.07;4.40;;;;;;;19.75;66.00;100778.88;10367532;28;20045;-63
2022/05/18 05:57:14;;;;;;;7.75;4.93;;;;;;;19.94;65.34;100783.09;10368055;28;20083;-63
2022/05/18 06:02:16;;;;;;;8.70;5.68;;;;;;;20.00;64.77;100787.81;10366716;28;20181;-63
2022/05/18 06:07:18;;;;;;;6.05;4.80;;;;;;;20.10;64.19;100787.63;10367869;28;20049;-64
2022/05/18 06:12:20;;;;;;;8.40;4.50;;;;;;;20.21;64.06;100795.38;10367641;28;20084;-63
2022/05/18 06:17:21;;;;;;;7.95;5.13;;;;;;;20.30;63.42;100794.31;10369099;28;20398;-64
2022/05/18 06:22:22;;;;;;;6.47;4.13;;;;;;;20.37;63.03;100794.47;10368174;28;20478;-63
2022/05/18 06:27:24;;;;;;;4.85;4.32;;;;;;;20.51;62.75;100797.44;10368680;28;20140;-64
2022/05/18 06:32:25;;;;;;;8.27;4.80;;;;;;;20.66;61.83;100798.44;10365839;28;20045;-64
2022/05/18 06:37:27;;;;;;;7.07;5.05;;;;;;;20.79;61.79;100803.25;10368892;28;20120;-64
2022/05/18 06:42:29;;;;;;;5.43;4.25;;;;;;;20.91;61.61;100799.16;10368396;28;20132;-63
2022/05/18 06:47:31;;;;;;;6.82;4.88;;;;;;;21.19;60.98;100802.16;10368135;28;20053;-64
2022/05/18 06:52:33;;;;;;;7.45;4.10;;;;;;;21.26;60.34;100774.38;10367840;28;20041;-63
2022/05/18 06:57:34;;;;;;;5.75;4.05;;;;;;;21.56;59.56;100799.72;10367515;28;20050;-63
2022/05/18 07:02:36;;;;;;;5.30;3.70;;;;;;;21.59;59.27;100790.38;10369591;28;20439;-63
2022/05/18 07:07:37;;;;;;;5.40;3.80;;;;;;;21.85;58.42;100804.34;10372717;28;20053;-64
2022/05/18 07:12:39;;;;;;;4.72;3.63;;;;;;;21.96;57.92;100811.19;10373621;28;20770;-63
2022/05/18 07:17:41;;;;;;;6.80;4.05;;;;;;;22.17;56.39;100812.34;10379223;28;20126;-63
2022/05/18 07:23:02;;;;;;;6.45;3.88;;;;;;;22.28;56.42;100816.44;10374003;28;20665;-64
2022/05/18 07:28:04;;;;;;;5.70;3.70;;;;;;;22.50;56.11;100812.81;10373943;28;20489;-63
2022/05/18 07:33:24;;;;;;;5.80;3.58;;;;;;;22.81;54.48;100803.63;10372003;28;20103;-63
2022/05/18 07:38:29;;;;;;;3.83;3.10;;;;;;;23.02;54.95;100804.69;10375906;28;20891;-63
2022/05/18 07:43:40;;;;;;;4.22;3.55;;;;;;;23.10;53.37;100812.75;10379054;28;20049;-65
2022/05/18 07:48:42;;;;;;;3.28;2.92;;;;;;;23.25;53.28;100805.38;10373852;28;20198;-64
2022/05/18 07:53:43;;;;;;;5.50;3.20;;;;;;;23.37;52.21;100783.13;10353018;28;20064;-63
2022/05/18 07:58:46;;;;;;;4.85;3.17;;;;;;;23.76;51.61;100819.84;10372324;28;20053;-62
2022/05/18 08:03:48;;;;;;;4.03;2.92;;;;;;;23.91;51.01;100815.16;10372653;28;20459;-62
2022/05/18 08:08:49;;;;;;;3.95;2.50;;;;;;;24.06;50.70;100806.91;10371244;28;20057;-64
2022/05/18 08:19:15;;;;;;;4.53;2.65;;;;;;;24.47;48.71;100810.69;10371261;28;20555;-63
2022/05/18 08:24:16;;;;;;;2.70;2.37;;;;;;;24.54;48.16;100803.41;10372295;28;20045;-63
2022/05/18 08:29:18;;;;;;;4.47;3.17;;;;;;;24.67;48.11;100776.28;10370108;28;20119;-63
2022/05/18 08:34:22;;;;;;;3.72;2.40;;;;;;;25.25;45.44;100810.34;10370869;28;20606;-63
2022/05/18 08:39:24;;;;;;;4.80;2.97;;;;;;;25.21;44.33;100809.09;10371884;28;20495;-63
2022/05/18 08:44:28;;;;;;;5.78;2.45;;;;;;;25.24;44.63;100797.78;10372018;28;20731;-63
2022/05/18 08:49:40;;;;;;;3.85;2.53;;;;;;;25.37;44.15;100792.41;10371161;28;20483;-63
2022/05/18 08:54:54;;;;;;;4.97;3.23;;;;;;;25.46;43.43;100800.34;10369981;28;20086;-63
2022/05/18 08:59:59;;;;;;;3.75;2.45;;;;;;;25.59;44.32;100797.63;10371195;28;20138;-64
2022/05/18 09:05:10;;;;;;;4.45;2.95;;;;;;;26.05;43.92;100799.50;10371367;28;20132;-63
2022/05/18 09:10:52;;;;;;;5.55;2.30;;;;;;;26.53;42.44;100797.47;10370050;28;20412;-64
2022/05/18 09:16:26;;;;;;;3.33;2.63;;;;;;;26.67;41.29;100788.22;10370482;28;20551;-63
2022/05/18 09:22:10;;;;;;;4.22;2.22;;;;;;;26.71;40.47;100786.72;10365390;28;20777;-63
2022/05/18 09:27:20;;;;;;;3.10;2.67;;;;;;;26.99;41.04;100777.31;10369140;28;20041;-64
2022/05/18 09:32:33;;;;;;;3.30;2.33;;;;;;;27.39;38.75;100760.69;10370691;28;20661;-63
2022/05/18 09:37:39;;;;;;;2.80;2.30;;;;;;;27.60;38.69;100764.91;10370599;28;20046;-63
2022/05/18 09:42:49;;;;;;;3.80;2.10;;;;;;;27.99;36.84;100779.28;10370614;28;22137;-63
2022/05/18 09:48:00;;;;;;;4.50;1.98;;;;;;;28.33;35.31;100788.00;10370259;28;20627;-63
2022/05/18 09:53:02;;;;;;;3.88;2.05;;;;;;;28.42;36.13;100743.88;10368468;28;20152;-63
2022/05/18 09:58:05;;;;;;;2.53;1.70;;;;;;;29.25;34.83;100773.28;10371031;28;20053;-64
2022/05/18 10:08:43;;;;;;;1.65;1.10;;;;;;;29.26;32.51;100761.25;10375546;28;20669;-64
2022/05/18 10:14:13;;;;;;;3.22;2.00;;;;;;;29.47;32.38;100730.75;10376779;28;20132;-63
2022/05/18 10:19:29;;;;;;;2.72;1.73;;;;;;;29.92;31.20;100752.97;10366519;28;20049;-64
2022/05/18 10:24:50;;;;;;;3.53;1.27;;;;;;;29.99;32.25;100747.34;10367464;28;20084;-65
2022/05/18 10:30:02;;;;;;;4.05;1.40;;;;;;;30.37;32.24;100740.47;10368158;28;20496;-63
2022/05/18 10:35:04;;;;;;;3.13;1.65;;;;;;;30.59;30.47;100750.81;10369125;28;20200;-64
2022/05/18 10:40:20;;;;;;;2.70;1.58;;;;;;;30.52;31.44;100750.13;10370268;28;20057;-64
2022/05/18 10:45:27;;;;;;;6.40;2.15;;;;;;;31.13;30.59;100747.72;10375150;28;20068;-64
2022/05/18 10:50:39;;;;;;;2.88;1.42;;;;;;;31.37;29.84;100743.69;10376233;28;20481;-64
2022/05/18 10:55:58;;;;;;;4.25;1.52;;;;;;;31.80;28.43;100735.00;10377080;28;20136;-64
2022/05/18 11:01:09;;;;;;;3.05;1.67;;;;;;;31.59;28.90;100720.97;10375853;28;20041;-63
2022/05/18 11:06:16;;;;;;;2.45;1.50;;;;;;;31.75;28.17;100715.69;10379923;28;20111;-64
2022/05/18 11:11:36;;;;;;;2.05;1.40;;;;;;;31.93;29.68;100701.63;10377222;28;20121;-64
2022/05/18 11:16:51;;;;;;;3.55;1.55;;;;;;;32.07;26.66;100705.66;10375687;28;20084;-64
2022/05/18 11:21:59;;;;;;;2.97;1.40;;;;;;;31.98;28.08;100692.59;10375868;28;20124;-64
2022/05/18 11:27:25;;;;;;;2.60;1.13;;;;;;;31.75;28.15;100679.91;10374061;28;20050;-64
2022/05/18 11:32:50;;;;;;;1.95;1.27;;;;;;;31.89;27.83;100687.53;10374121;28;20052;-64
2022/05/18 11:38:05;;;;;;;2.75;1.20;;;;;;;32.10;27.90;100685.06;10372722;28;20672;-64
2022/05/18 11:43:35;;;;;;;1.50;1.13;;;;;;;32.22;27.11;100683.03;10373356;28;20099;-64
2022/05/18 11:49:23;;;;;;;2.80;1.45;;;;;;;32.04;27.42;100686.91;10371491;28;20296;-64
2022/05/18 11:54:36;;;;;;;2.00;1.10;;;;;;;32.12;27.30;100682.91;10262820;28;20266;-65
2022/05/18 12:00:01;;;;;;;2.97;1.23;;;;;;;31.81;26.93;100667.88;10368807;28;20063;-64
2022/05/18 12:05:27;;;;;;;2.47;0.85;;;;;;;31.80;26.09;100663.44;10373517;28;20243;-64
2022/05/18 12:10:50;;;;;;;2.17;1.00;;;;;;;31.94;26.36;100663.94;10373206;28;20064;-63
2022/05/18 12:16:04;;;;;;;1.55;1.00;;;;;;;32.17;26.64;100671.09;10372350;28;20538;-64
2022/05/18 12:21:14;;;;;;;2.47;1.58;;;;;;;32.15;27.84;100665.84;10371349;28;20037;-64
2022/05/18 12:26:20;;;;;;;2.60;1.00;;;;;;;32.15;28.32;100654.84;10371751;28;20419;-64
2022/05/18 12:31:22;;;;;;;2.05;1.02;;;;;;;31.67;27.47;100629.72;10369479;28;20065;-64
2022/05/18 12:36:32;;;;;;;2.25;1.10;;;;;;;31.75;27.84;100650.47;10372645;28;20117;-65
2022/05/18 12:41:40;;;;;;;4.05;1.02;;;;;;;31.77;27.49;100641.94;10379147;28;20104;-64
2022/05/18 12:46:54;;;;;;;2.35;1.20;;;;;;;31.57;27.88;100643.34;10372072;28;20061;-64
2022/05/18 12:52:03;;;;;;;1.92;1.20;;;;;;;31.80;27.37;100652.44;10370748;28;20091;-63
2022/05/18 12:57:04;;;;;;;1.80;1.00;;;;;;;31.74;27.28;100643.31;10371794;28;20056;-64
2022/05/18 13:02:19;;;;;;;4.40;1.20;;;;;;;31.86;26.86;100646.78;10368774;28;20052;-63
2022/05/18 13:07:27;;;;;;;2.45;1.10;;;;;;;31.76;28.00;100634.81;10370330;28;20049;-63
2022/05/18 13:12:35;;;;;;;0.93;0.75;;;;;;;31.77;28.00;100626.28;10368651;28;20872;-63
2022/05/18 13:17:45;;;;;;;2.47;1.40;;;;;;;31.81;28.25;100626.59;10368550;28;20516;-63
2022/05/18 13:22:56;;;;;;;2.55;1.10;;;;;;;31.35;27.11;100627.63;10369746;28;20055;-64
2022/05/18 13:28:00;;;;;;;1.88;1.10;;;;;;;31.17;27.81;100622.41;10369934;28;20127;-64
2022/05/18 13:33:04;;;;;;;3.00;1.30;;;;;;;31.22;27.83;100616.97;10368517;28;20053;-64
2022/05/18 13:38:08;;;;;;;1.38;1.05;;;;;;;31.10;27.91;100622.56;10371211;28;20055;-63
2022/05/18 13:43:15;;;;;;;2.38;1.40;;;;;;;31.21;28.16;100612.56;10370999;28;20142;-64
2022/05/18 13:48:17;;;;;;;2.42;1.27;;;;;;;31.22;28.37;100610.66;10365330;28;20049;-63
2022/05/18 13:53:45;;;;;;;6.05;1.35;;;;;;;30.88;28.24;100581.25;10369591;28;20626;-64
2022/05/18 13:58:52;;;;;;;2.08;1.20;;;;;;;30.85;28.73;100604.59;10368176;28;20124;-64
2022/05/18 14:04:01;;;;;;;6.97;2.08;;;;;;;30.63;28.96;100601.75;10369502;28;20118;-64
2022/05/18 14:09:05;;;;;;;2.15;1.75;;;;;;;30.47;29.14;100591.56;10368583;28;20050;-64
2022/05/18 14:14:07;;;;;;;3.25;1.35;;;;;;;30.59;29.40;100583.25;10369616;28;20079;-64
2022/05/18 14:19:36;;;;;;;2.25;1.20;;;;;;;30.56;28.50;100573.59;10378327;28;20480;-63
2022/05/18 14:25:03;;;;;;;2.80;1.27;;;;;;;30.30;28.85;100559.41;10377003;28;20670;-64
2022/05/18 14:30:09;;;;;;;3.53;1.38;;;;;;;30.42;28.41;100577.75;10375526;28;20063;-64
2022/05/18 14:35:40;;;;;;;2.03;1.20;;;;;;;30.17;29.04;100570.69;10377124;28;20045;-64
2022/05/18 14:40:47;;;;;;;1.83;1.17;;;;;;;30.08;28.96;100570.25;10378599;28;20501;-63
2022/05/18 14:45:54;;;;;;;2.45;1.20;;;;;;;30.02;29.29;100573.16;10376208;28;20060;-63
2022/05/18 14:51:32;;;;;;;1.92;1.00;;;;;;;29.66;29.34;100514.81;10377661;28;20523;-64
2022/05/18 14:56:42;;;;;;;2.08;1.15;;;;;;;29.88;29.68;100554.22;10375758;28;20357;-64
2022/05/18 15:01:47;;;;;;;1.65;1.20;;;;;;;29.93;29.32;100564.47;10376873;28;20067;-63
2022/05/18 15:06:51;;;;;;;2.78;1.30;;;;;;;29.80;29.58;100528.00;10381949;28;20052;-62
2022/05/18 15:12:03;;;;;;;1.63;1.20;;;;;;;29.88;29.57;100553.41;10399218;28;20111;-63
2022/05/18 15:17:14;;;;;;;1.97;1.57;;;;;;;29.67;29.78;100549.41;10375305;28;20999;-63
2022/05/18 15:22:34;;;;;;;4.13;1.17;;;;;;;29.71;29.84;100553.31;10375108;28;20081;-63
2022/05/18 15:27:36;;;;;;;2.53;1.55;;;;;;;29.49;29.76;100532.03;10374244;28;20132;-64
2022/05/18 15:32:44;;;;;;;3.25;1.40;;;;;;;29.47;30.47;100547.91;10375319;28;20064;-63
2022/05/18 15:37:53;;;;;;;1.97;1.40;;;;;;;29.40;30.58;100538.97;10374970;28;20045;-63
2022/05/18 15:42:54;;;;;;;2.95;1.30;;;;;;;29.31;30.86;100543.16;10375705;28;20688;-63
2022/05/18 15:47:59;;;;;;;3.33;1.10;;;;;;;29.13;30.84;100544.13;10373669;28;20053;-64
2022/05/18 15:53:00;;;;;;;3.80;1.35;;;;;;;29.14;31.06;100549.34;10373400;28;20523;-64
2022/05/18 15:58:02;;;;;;;;;;;;;;;29.21;30.90;100541.84;10372239;28;20144;-63
2022/05/18 16:03:03;;;;;;;4.03;1.20;;;;;;;29.24;31.62;100540.53;10370981;28;20792;-64
2022/05/18 16:08:06;;;;;;;2.40;1.57;;;;;;;29.20;30.95;100542.91;10372526;28;20053;-64
2022/05/18 16:13:07;;;;;;;;;;;;;;;29.13;31.01;100542.19;10372409;28;20056;-64
2022/05/18 16:18:09;;;;;;;3.88;1.67;;;;;;;29.09;31.32;100535.53;10371342;28;20386;-64
2022/05/18 16:23:15;;;;;;;2.77;1.43;;;;;;;29.06;31.70;100533.25;10371675;28;20195;-63
2022/05/18 16:28:23;;;;;;;1.92;1.40;;;;;;;28.96;31.65;100528.41;10372942;28;20296;-63
2022/05/18 16:33:29;;;;;;;1.73;1.30;;;;;;;28.86;31.89;100539.94;10372027;28;20172;-63
2022/05/18 16:38:30;;;;;;;2.88;1.65;;;;;;;28.75;32.10;100538.06;10371709;28;20067;-63
2022/05/18 16:43:31;;;;;;;2.15;1.27;;;;;;;28.62;32.39;100532.78;10368509;28;20140;-62
2022/05/18 16:48:33;;;;;;;2.05;1.42;;;;;;;28.45;32.72;100522.50;10371362;28;20132;-63
2022/05/18 16:53:35;;;;;;;2.37;1.47;;;;;;;28.38;32.95;100524.50;10371436;28;20405;-64
2022/05/18 16:58:37;;;;;;;3.17;1.63;;;;;;;28.33;32.73;100518.88;10369643;28;20151;-63
2022/05/18 17:03:39;;;;;;;3.03;1.42;;;;;;;28.27;33.10;100520.69;10371310;28;20324;-63
2022/05/18 17:08:55;;;;;;;2.30;1.40;;;;;;;28.10;33.48;100506.81;10371292;28;20045;-63
2022/05/18 17:14:01;;;;;;;2.03;1.27;;;;;;;28.12;33.45;100512.91;10370613;28;20103;-63
2022/05/18 17:19:03;;;;;;;1.95;1.50;;;;;;;28.06;33.67;100519.31;10367833;28;21254;-63
2022/05/18 17:24:05;;;;;;;6.05;2.10;;;;;;;27.95;34.13;100522.81;10369870;28;20445;-63
2022/05/18 17:29:17;;;;;;;1.90;1.47;;;;;;;27.85;34.61;100517.91;10370714;28;20113;-63
2022/05/18 17:34:19;;;;;;;3.25;1.63;;;;;;;27.78;34.97;100530.84;10369993;28;20041;-63
2022/05/18 17:39:20;;;;;;;3.88;1.50;;;;;;;27.69;34.66;100527.56;10378619;28;20057;-62
2022/05/18 17:44:23;;;;;;;2.40;1.67;;;;;;;27.61;34.34;100534.19;10370710;28;20128;-64
2022/05/18 17:49:29;;;;;;;2.45;1.50;;;;;;;27.56;34.98;100523.09;10370140;28;20152;-63
2022/05/18 17:54:30;;;;;;;3.40;1.58;;;;;;;27.27;35.40;100489.16;10369066;28;20053;-63
2022/05/18 17:59:32;;;;;;;2.58;1.80;;;;;;;27.34;35.63;100520.84;10367940;28;20075;-64
2022/05/18 18:04:33;;;;;;;3.38;1.70;;;;;;;27.12;35.68;100503.22;10368549;28;20423;-64
2022/05/18 18:09:35;;;;;;;5.72;2.70;;;;;;;27.23;36.29;100528.94;10368317;28;20054;-63
2022/05/18 18:14:36;;;;;;;5.60;1.95;;;;;;;27.12;36.33;100531.34;10368460;28;20072;-63
2022/05/18 18:19:39;;;;;;;2.72;1.35;;;;;;;27.03;36.59;100526.44;10367708;28;20046;-63
2022/05/18 18:24:47;;;;;;;2.25;1.50;;;;;;;26.94;37.01;100539.53;10367062;28;20053;-63
2022/05/18 18:29:49;;;;;;;3.60;1.90;;;;;;;26.87;36.80;100538.75;10367398;28;20064;-63
2022/05/18 18:34:51;;;;;;;6.28;2.20;;;;;;;26.77;37.48;100533.81;10369402;28;20046;-64
2022/05/18 18:39:54;;;;;;;4.50;2.20;;;;;;;26.69;37.01;100534.91;10368403;28;20049;-64
2022/05/18 18:45:00;;;;;;;2.33;1.70;;;;;;;26.60;37.75;100533.50;10369511;28;20050;-63
2022/05/18 18:50:02;;;;;;;5.38;2.17;;;;;;;26.52;37.76;100534.63;10370217;28;20041;-63
2022/05/18 18:55:13;;;;;;;3.23;1.83;;;;;;;26.41;38.40;100538.91;10371831;28;20117;-63
2022/05/18 19:00:28;;;;;;;2.67;1.90;;;;;;;26.33;38.40;100533.69;10369672;28;20045;-63
2022/05/18 19:05:33;;;;;;;4.00;1.98;;;;;;;26.23;38.70;100541.56;10375492;28;20042;-64
2022/05/18 19:10:40;;;;;;;3.97;2.25;;;;;;;26.15;38.67;100530.91;10375447;28;20148;-63
2022/05/18 19:15:41;;;;;;;3.55;1.85;;;;;;;26.05;39.08;100532.22;10373049;28;20140;-64
2022/05/18 19:20:46;;;;;;;3.03;2.00;;;;;;;25.98;39.55;100534.09;10373762;28;20136;-64
2022/05/18 19:25:48;;;;;;;3.05;1.73;;;;;;;25.71;39.63;100504.25;10375018;28;20154;-63
2022/05/18 19:30:50;;;;;;;2.23;1.97;;;;;;;25.83;39.40;100552.66;10373643;28;20052;-64
2022/05/18 19:35:51;;;;;;;3.55;2.10;;;;;;;25.75;39.97;100554.56;10373913;28;20057;-63
2022/05/18 19:40:52;;;;;;;2.88;1.75;;;;;;;25.70;40.16;100550.81;10372497;28;20749;-63
2022/05/18 19:45:57;;;;;;;3.53;1.90;;;;;;;25.62;40.46;100554.63;10374459;28;20159;-63
2022/05/18 19:51:00;;;;;;;2.95;1.63;;;;;;;25.57;40.52;100562.63;10376228;28;20142;-62
2022/05/18 19:56:02;;;;;;;4.80;2.28;;;;;;;25.46;41.19;100553.22;10374439;28;20397;-63
2022/05/18 20:01:05;;;;;;;2.42;1.67;;;;;;;25.41;41.13;100564.75;10373478;28;20187;-64
2022/05/18 20:06:07;;;;;;;2.35;1.85;;;;;;;25.32;41.92;100555.13;10375287;28;20421;-64
2022/05/18 20:11:09;;;;;;;4.00;2.35;;;;;;;25.12;41.72;100547.00;10386388;28;20049;-64
2022/05/18 20:16:10;;;;;;;2.65;2.45;;;;;;;25.23;42.03;100568.13;10372693;28;20714;-64
2022/05/18 20:21:12;;;;;;;3.80;2.40;;;;;;;25.12;42.23;100554.34;10373154;28;20144;-64
2022/05/18 20:26:40;;;;;;;3.78;2.20;;;;;;;25.06;42.38;100559.56;10374700;28;20049;-63
2022/05/18 20:31:53;;;;;;;5.13;2.50;;;;;;;24.98;42.42;100558.94;10369593;28;20049;-64
2022/05/18 20:37:17;;;;;;;4.33;3.00;;;;;;;24.87;42.75;100557.69;10371739;28;20061;-65
2022/05/18 20:42:24;;;;;;;3.10;2.80;;;;;;;24.81;43.14;100559.38;10370584;28;20054;-65
2022/05/18 20:47:31;;;;;;;4.00;2.35;;;;;;;24.74;42.70;100563.16;10371852;28;20504;-64
2022/05/18 20:52:33;;;;;;;3.30;2.80;;;;;;;24.64;43.32;100558.97;10386872;28;20053;-63
2022/05/18 20:57:37;;;;;;;5.07;3.00;;;;;;;24.36;44.05;100534.63;10369424;28;20512;-65
2022/05/18 21:02:39;;;;;;;3.63;2.80;;;;;;;24.47;44.54;100555.78;10371486;28;20477;-65
2022/05/18 21:07:41;;;;;;;4.50;3.50;;;;;;;24.43;45.12;100554.53;10373410;28;20660;-64
2022/05/18 21:12:51;;;;;;;4.15;2.97;;;;;;;24.37;44.63;100557.25;10363677;28;20092;-65
2022/05/18 21:17:53;;;;;;;3.95;2.95;;;;;;;24.30;45.13;100546.34;10371334;28;20132;-65
2022/05/18 21:22:55;;;;;;;4.38;3.08;;;;;;;24.02;45.09;100517.44;10370915;28;21147;-66
2022/05/18 21:27:57;;;;;;;3.13;2.35;;;;;;;24.17;45.34;100558.06;10371338;28;20630;-64
2022/05/18 21:33:00;;;;;;;3.80;2.45;;;;;;;23.89;45.93;100522.84;10368223;28;20144;-64
2022/05/18 21:38:02;;;;;;;5.20;2.53;;;;;;;24.03;46.23;100551.72;10370803;28;20064;-64
2022/05/18 21:43:05;;;;;;;3.88;2.40;;;;;;;23.77;46.41;100519.84;10368233;28;20156;-64
2022/05/18 21:48:07;;;;;;;2.72;2.15;;;;;;;23.90;46.61;100554.41;10368736;28;20107;-65
2022/05/18 21:53:09;;;;;;;3.28;2.53;;;;;;;23.82;47.06;100558.09;10366369;28;20057;-64
2022/05/18 21:58:12;;;;;;;5.15;3.33;;;;;;;23.76;47.22;100562.47;10368999;28;20057;-64
2022/05/18 22:03:17;;;;;;;5.30;3.95;;;;;;;23.68;47.44;100568.09;10369284;28;20502;-63
2022/05/18 22:08:18;;;;;;;6.22;4.10;;;;;;;23.63;47.34;100574.13;10370240;28;20428;-65
2022/05/18 22:13:20;;;;;;;6.28;5.68;;;;;;;23.57;47.49;100568.66;10369346;28;20792;-64
2022/05/18 22:18:22;;;;;;;4.57;3.72;;;;;;;23.51;48.02;100567.59;10371801;28;20523;-64
2022/05/18 22:23:23;;;;;;;4.07;3.60;;;;;;;23.44;48.11;100569.44;10370838;28;20408;-65
2022/05/18 22:28:26;;;;;;;3.92;3.00;;;;;;;23.38;48.39;100562.09;10371367;28;20747;-65
2022/05/18 22:33:28;;;;;;;4.65;3.40;;;;;;;23.32;48.61;100571.06;10372610;28;20740;-65
2022/05/18 22:38:29;;;;;;;3.35;3.05;;;;;;;23.24;49.35;100559.31;10383307;28;20054;-65
2022/05/18 22:43:31;;;;;;;4.03;3.42;;;;;;;23.22;49.13;100555.94;10390493;28;20119;-64
2022/05/18 22:48:32;;;;;;;4.93;3.90;;;;;;;23.16;49.35;100567.59;10378090;28;20049;-66
2022/05/18 22:53:34;;;;;;;4.25;3.53;;;;;;;23.09;49.07;100572.13;10377957;28;20133;-64
2022/05/18 22:58:35;;;;;;;3.60;2.75;;;;;;;23.05;49.32;100570.84;10377473;28;20117;-64
2022/05/18 23:03:36;;;;;;;4.07;2.97;;;;;;;22.96;48.72;100567.44;10374592;28;20077;-64
2022/05/18 23:08:38;;;;;;;3.72;3.42;;;;;;;22.95;49.30;100563.88;10378706;28;20060;-64
2022/05/18 23:13:39;;;;;;;6.10;3.38;;;;;;;22.88;49.80;100560.28;10376096;28;20057;-66
2022/05/18 23:18:42;;;;;;;6.68;3.95;;;;;;;22.84;49.67;100563.59;10376128;28;20269;-63
2022/05/18 23:23:45;;;;;;;3.88;3.47;;;;;;;22.80;49.75;100563.13;10372650;28;20046;-65
2022/05/18 23:29:10;;;;;;;3.43;3.13;;;;;;;22.80;49.22;100567.72;10374538;28;20053;-65
2022/05/18 23:34:11;;;;;;;4.38;3.88;;;;;;;22.74;50.14;100566.63;10375116;28;20049;-64
2022/05/18 23:39:13;;;;;;;6.00;3.88;;;;;;;22.62;50.61;100576.34;10373327;28;20057;-64
2022/05/18 23:44:14;;;;;;;4.13;3.53;;;;;;;22.63;50.12;100578.03;10378173;28;20437;-64
2022/05/18 23:49:25;;;;;;;4.00;3.03;;;;;;;22.59;50.38;100562.13;10375498;28;20472;-64